CPA2521 PMDY-PHNL
Flight info
| Callsign | CPA2521 |
|---|---|
| Flight time | N/A |
| Altitude | 41000 |
| Route | 27N175W 25N170W DOGIF CANON BOOKE8 |
| Aircraft | A333/H-SDE3GHIJ2J3J5M1RVWXY/LB2D1 |
Departure
| Time | 2026-04-25 14:47 |
|---|---|
| Airport | Henderson Field (PMDY) |
Arrival
| Time | N/A |
|---|---|
| Airport | Daniel K. Inouye International Airport (PHNL) |
| Time | Latitude | Longitude | Altitude | Speed | Heading |
|---|---|---|---|---|---|
| 2026-04-25 14:47 | 28.15020 | -177.27871 | 5135 ft | 264 kts | 122° |
| 2026-04-25 14:47 | 28.14411 | -177.26667 | 5713 ft | 268 kts | 121° |
| 2026-04-25 14:47 | 28.13193 | -177.24150 | 6890 ft | 276 kts | 120° |
| 2026-04-25 14:47 | 28.12272 | -177.22219 | 7773 ft | 282 kts | 120° |
| 2026-04-25 14:48 | 28.11328 | -177.20249 | 8685 ft | 287 kts | 120° |
| 2026-04-25 14:48 | 28.10360 | -177.18249 | 9599 ft | 293 kts | 121° |
| 2026-04-25 14:48 | 28.09362 | -177.16206 | 10432 ft | 300 kts | 121° |
| 2026-04-25 14:48 | 28.08310 | -177.14070 | 10849 ft | 323 kts | 121° |
| 2026-04-25 14:49 | 28.07175 | -177.11776 | 11192 ft | 344 kts | 120° |
| 2026-04-25 14:49 | 28.05985 | -177.09371 | 11799 ft | 354 kts | 120° |
| 2026-04-25 14:49 | 28.04774 | -177.06921 | 12567 ft | 359 kts | 120° |
| 2026-04-25 14:49 | 28.03551 | -177.04444 | 13378 ft | 362 kts | 120° |
| 2026-04-25 14:50 | 28.02319 | -177.01951 | 14177 ft | 364 kts | 119° |
| 2026-04-25 14:50 | 28.01073 | -176.99429 | 14848 ft | 369 kts | 119° |
| 2026-04-25 14:50 | 27.99810 | -176.96877 | 15482 ft | 374 kts | 120° |
| 2026-04-25 14:50 | 27.98531 | -176.94295 | 16135 ft | 379 kts | 120° |
| 2026-04-25 14:51 | 27.97232 | -176.91676 | 16807 ft | 384 kts | 119° |
| 2026-04-25 14:51 | 27.95923 | -176.89033 | 17493 ft | 387 kts | 119° |
| 2026-04-25 14:51 | 27.94598 | -176.86363 | 18170 ft | 391 kts | 119° |
| 2026-04-25 14:51 | 27.93257 | -176.83667 | 18745 ft | 396 kts | 120° |
| 2026-04-25 14:52 | 27.91899 | -176.80937 | 19296 ft | 400 kts | 119° |
| 2026-04-25 14:52 | 27.90530 | -176.78185 | 19873 ft | 403 kts | 119° |
| 2026-04-25 14:52 | 27.89193 | -176.75500 | 20434 ft | 406 kts | 119° |
| 2026-04-25 14:52 | 27.88256 | -176.73617 | 20831 ft | 408 kts | 119° |
| 2026-04-25 14:53 | 27.86386 | -176.69864 | 21639 ft | 411 kts | 119° |
| 2026-04-25 14:53 | 27.84996 | -176.67077 | 22208 ft | 414 kts | 119° |
| 2026-04-25 14:53 | 27.83579 | -176.64236 | 22767 ft | 417 kts | 119° |
| 2026-04-25 14:53 | 27.82145 | -176.61365 | 23299 ft | 421 kts | 119° |
| 2026-04-25 14:54 | 27.80700 | -176.58473 | 23834 ft | 424 kts | 119° |
| 2026-04-25 14:54 | 27.79243 | -176.55559 | 24269 ft | 428 kts | 119° |
| 2026-04-25 14:54 | 27.77772 | -176.52619 | 24700 ft | 431 kts | 119° |
| 2026-04-25 14:54 | 27.76295 | -176.49671 | 25152 ft | 433 kts | 119° |
| 2026-04-25 14:55 | 27.74805 | -176.46697 | 25584 ft | 436 kts | 119° |
| 2026-04-25 14:55 | 27.73308 | -176.43713 | 26043 ft | 439 kts | 119° |
| 2026-04-25 14:55 | 27.72623 | -176.42347 | 26223 ft | 440 kts | 119° |
| 2026-04-25 14:55 | 27.71107 | -176.39326 | 26614 ft | 444 kts | 119° |
| 2026-04-25 14:56 | 27.69580 | -176.36285 | 27018 ft | 447 kts | 119° |
| 2026-04-25 14:56 | 27.68041 | -176.33224 | 27471 ft | 449 kts | 119° |
| 2026-04-25 14:56 | 27.66496 | -176.30154 | 27927 ft | 451 kts | 119° |
| 2026-04-25 14:56 | 27.64940 | -176.27063 | 28345 ft | 454 kts | 119° |
| 2026-04-25 14:57 | 27.63375 | -176.23958 | 28784 ft | 456 kts | 119° |
| 2026-04-25 14:57 | 27.61809 | -176.20850 | 29186 ft | 460 kts | 118° |
| 2026-04-25 14:57 | 27.60216 | -176.17689 | 29527 ft | 464 kts | 118° |
| 2026-04-25 14:57 | 27.58615 | -176.14519 | 29901 ft | 467 kts | 118° |
| 2026-04-25 14:58 | 27.57007 | -176.11336 | 30278 ft | 470 kts | 118° |
| 2026-04-25 14:58 | 27.55382 | -176.08123 | 30644 ft | 472 kts | 119° |
| 2026-04-25 14:58 | 27.53756 | -176.04912 | 31045 ft | 473 kts | 119° |
| 2026-04-25 14:58 | 27.52123 | -176.01688 | 31381 ft | 475 kts | 119° |
| 2026-04-25 14:59 | 27.50480 | -175.98447 | 31735 ft | 477 kts | 118° |
| 2026-04-25 14:59 | 27.48831 | -175.95189 | 32024 ft | 480 kts | 118° |
| 2026-04-25 14:59 | 27.47175 | -175.91925 | 32434 ft | 480 kts | 118° |
| 2026-04-25 14:59 | 27.45520 | -175.88669 | 32968 ft | 478 kts | 118° |
| 2026-04-25 15:00 | 27.43872 | -175.85430 | 33508 ft | 475 kts | 119° |
| 2026-04-25 15:00 | 27.42236 | -175.82217 | 33987 ft | 473 kts | 118° |
| 2026-04-25 15:00 | 27.40601 | -175.79005 | 34386 ft | 473 kts | 118° |
| 2026-04-25 15:00 | 27.38963 | -175.75789 | 34647 ft | 475 kts | 118° |
| 2026-04-25 15:01 | 27.37320 | -175.72568 | 34962 ft | 475 kts | 119° |
| 2026-04-25 15:01 | 27.35674 | -175.69340 | 35329 ft | 474 kts | 119° |
| 2026-04-25 15:01 | 27.34035 | -175.66131 | 35691 ft | 474 kts | 119° |
| 2026-04-25 15:01 | 27.32396 | -175.62925 | 36089 ft | 471 kts | 119° |
| 2026-04-25 15:02 | 27.30766 | -175.59738 | 36494 ft | 470 kts | 119° |
| 2026-04-25 15:02 | 27.29135 | -175.56550 | 36793 ft | 470 kts | 119° |
| 2026-04-25 15:02 | 27.27509 | -175.53375 | 37131 ft | 469 kts | 119° |
| 2026-04-25 15:02 | 27.25878 | -175.50192 | 37391 ft | 470 kts | 119° |
| 2026-04-25 15:03 | 27.24244 | -175.47005 | 37711 ft | 470 kts | 119° |
| 2026-04-25 15:03 | 27.22612 | -175.43826 | 38005 ft | 470 kts | 119° |
| 2026-04-25 15:03 | 27.20978 | -175.40645 | 38338 ft | 469 kts | 119° |
| 2026-04-25 15:03 | 27.19357 | -175.37491 | 38708 ft | 467 kts | 119° |
| 2026-04-25 15:04 | 27.17726 | -175.34320 | 38945 ft | 468 kts | 119° |
| 2026-04-25 15:04 | 27.16100 | -175.31162 | 39200 ft | 467 kts | 119° |
| 2026-04-25 15:04 | 27.14474 | -175.28006 | 39436 ft | 467 kts | 120° |
| 2026-04-25 15:04 | 27.12872 | -175.24897 | 39630 ft | 467 kts | 120° |
| 2026-04-25 15:05 | 27.11243 | -175.21740 | 39826 ft | 467 kts | 120° |
| 2026-04-25 15:05 | 27.09613 | -175.18582 | 40018 ft | 468 kts | 120° |
| 2026-04-25 15:05 | 27.07979 | -175.15420 | 40207 ft | 468 kts | 120° |
| 2026-04-25 15:06 | 27.04709 | -175.09096 | 40594 ft | 469 kts | 120° |
| 2026-04-25 15:06 | 27.03069 | -175.05930 | 40773 ft | 469 kts | 120° |
| 2026-04-25 15:06 | 27.01431 | -175.02769 | 40968 ft | 470 kts | 120° |
| 2026-04-25 15:06 | 26.99916 | -174.99522 | 41120 ft | 470 kts | 114° |
| 2026-04-25 15:07 | 26.98565 | -174.96170 | 41184 ft | 474 kts | 113° |
| 2026-04-25 15:07 | 26.95952 | -174.89355 | 41185 ft | 476 kts | 112° |
| 2026-04-25 15:08 | 26.93387 | -174.82511 | 41186 ft | 476 kts | 112° |
| 2026-04-25 15:08 | 26.90821 | -174.75681 | 41187 ft | 476 kts | 112° |
| 2026-04-25 15:09 | 26.88243 | -174.68858 | 41185 ft | 476 kts | 112° |
| 2026-04-25 15:09 | 26.84359 | -174.58624 | 41188 ft | 476 kts | 112° |
| 2026-04-25 15:10 | 26.81762 | -174.51798 | 41186 ft | 476 kts | 112° |
| 2026-04-25 15:11 | 26.77865 | -174.41572 | 41188 ft | 476 kts | 112° |
| 2026-04-25 15:11 | 26.75264 | -174.34763 | 41181 ft | 476 kts | 112° |
| 2026-04-25 15:12 | 26.71353 | -174.24545 | 41184 ft | 477 kts | 112° |
| 2026-04-25 15:12 | 26.69623 | -174.20032 | 41187 ft | 477 kts | 112° |
| 2026-04-25 15:13 | 26.64833 | -174.07566 | 41187 ft | 476 kts | 112° |
| 2026-04-25 15:14 | 26.62212 | -174.00763 | 41183 ft | 476 kts | 112° |
| 2026-04-25 15:14 | 26.59589 | -173.93966 | 41184 ft | 477 kts | 112° |
| 2026-04-25 15:15 | 26.57389 | -173.88272 | 41184 ft | 476 kts | 112° |
| 2026-04-25 15:15 | 26.54335 | -173.80382 | 41184 ft | 476 kts | 112° |
| 2026-04-25 15:16 | 26.51703 | -173.73596 | 41184 ft | 476 kts | 112° |
| 2026-04-25 15:16 | 26.47753 | -173.63432 | 41184 ft | 476 kts | 112° |
| 2026-04-25 15:17 | 26.43795 | -173.53272 | 41189 ft | 476 kts | 112° |
| 2026-04-25 15:18 | 26.41150 | -173.46496 | 41179 ft | 476 kts | 112° |
| 2026-04-25 15:18 | 26.37173 | -173.36332 | 41184 ft | 477 kts | 112° |
| 2026-04-25 15:19 | 26.35416 | -173.31846 | 41184 ft | 477 kts | 112° |
| 2026-04-25 15:19 | 26.31865 | -173.22802 | 41182 ft | 477 kts | 112° |
| 2026-04-25 15:20 | 26.29202 | -173.16031 | 41182 ft | 476 kts | 113° |
| 2026-04-25 15:20 | 26.26537 | -173.09267 | 41184 ft | 476 kts | 112° |
| 2026-04-25 15:21 | 26.23871 | -173.02512 | 41182 ft | 477 kts | 112° |
| 2026-04-25 15:21 | 26.21200 | -172.95754 | 41184 ft | 477 kts | 112° |
| 2026-04-25 15:22 | 26.18523 | -172.88993 | 41184 ft | 477 kts | 113° |
| 2026-04-25 15:22 | 26.15846 | -172.82242 | 41183 ft | 477 kts | 113° |
| 2026-04-25 15:23 | 26.13163 | -172.75489 | 41185 ft | 477 kts | 113° |
| 2026-04-25 15:23 | 26.10480 | -172.68745 | 41180 ft | 477 kts | 113° |
| 2026-04-25 15:24 | 26.07796 | -172.62009 | 41177 ft | 477 kts | 113° |
| 2026-04-25 15:24 | 26.06015 | -172.57546 | 41174 ft | 477 kts | 113° |
| 2026-04-25 15:25 | 26.02410 | -172.48527 | 41179 ft | 477 kts | 113° |
| 2026-04-25 15:25 | 25.99712 | -172.41791 | 41179 ft | 477 kts | 113° |
| 2026-04-25 15:26 | 25.97011 | -172.35056 | 41164 ft | 477 kts | 113° |
| 2026-04-25 15:26 | 25.94304 | -172.28317 | 41178 ft | 478 kts | 113° |
| 2026-04-25 15:27 | 25.91597 | -172.21590 | 41174 ft | 477 kts | 113° |
| 2026-04-25 15:28 | 25.87529 | -172.11501 | 41174 ft | 477 kts | 113° |
| 2026-04-25 15:28 | 25.84815 | -172.04783 | 41175 ft | 478 kts | 113° |
| 2026-04-25 15:29 | 25.82108 | -171.98094 | 41170 ft | 478 kts | 113° |
| 2026-04-25 15:29 | 25.79381 | -171.91367 | 41177 ft | 477 kts | 113° |
| 2026-04-25 15:30 | 25.77099 | -171.85743 | 41173 ft | 477 kts | 113° |
| 2026-04-25 15:30 | 25.74388 | -171.79029 | 41175 ft | 477 kts | 113° |
| 2026-04-25 15:31 | 25.71657 | -171.72331 | 41180 ft | 477 kts | 113° |
| 2026-04-25 15:31 | 25.68931 | -171.65671 | 41176 ft | 478 kts | 114° |
| 2026-04-25 15:32 | 25.66184 | -171.58955 | 41175 ft | 478 kts | 113° |
| 2026-04-25 15:32 | 25.63433 | -171.52233 | 41171 ft | 479 kts | 114° |
| 2026-04-25 15:33 | 25.59307 | -171.42166 | 41170 ft | 478 kts | 114° |
| 2026-04-25 15:33 | 25.56555 | -171.35464 | 41175 ft | 478 kts | 114° |
| 2026-04-25 15:34 | 25.53803 | -171.28773 | 41174 ft | 477 kts | 114° |
| 2026-04-25 15:34 | 25.51498 | -171.23177 | 41180 ft | 478 kts | 114° |
| 2026-04-25 15:35 | 25.46901 | -171.12039 | 41169 ft | 478 kts | 114° |
| 2026-04-25 15:36 | 25.42739 | -171.01979 | 41171 ft | 480 kts | 114° |
| 2026-04-25 15:36 | 25.39964 | -170.95287 | 41170 ft | 478 kts | 114° |
| 2026-04-25 15:37 | 25.37189 | -170.88602 | 41173 ft | 478 kts | 114° |
| 2026-04-25 15:37 | 25.34415 | -170.81931 | 41173 ft | 477 kts | 114° |
| 2026-04-25 15:38 | 25.31640 | -170.75267 | 41172 ft | 478 kts | 114° |
| 2026-04-25 15:38 | 25.28848 | -170.68575 | 41173 ft | 479 kts | 114° |
| 2026-04-25 15:39 | 25.26056 | -170.61890 | 41169 ft | 480 kts | 114° |
| 2026-04-25 15:39 | 25.23257 | -170.55202 | 41168 ft | 480 kts | 114° |
| 2026-04-25 15:40 | 25.20931 | -170.49649 | 41165 ft | 479 kts | 114° |
| 2026-04-25 15:40 | 25.17653 | -170.41837 | 41162 ft | 480 kts | 114° |
| 2026-04-25 15:41 | 25.14846 | -170.35161 | 41164 ft | 479 kts | 114° |
| 2026-04-25 15:41 | 25.12046 | -170.28510 | 41168 ft | 478 kts | 114° |
| 2026-04-25 15:42 | 25.09233 | -170.21838 | 41166 ft | 480 kts | 114° |
| 2026-04-25 15:42 | 25.06417 | -170.15169 | 41167 ft | 480 kts | 114° |
| 2026-04-25 15:43 | 25.03607 | -170.08524 | 41162 ft | 482 kts | 114° |
| 2026-04-25 15:43 | 25.00790 | -170.01833 | 41164 ft | 480 kts | 111° |
| 2026-04-25 15:44 | 24.98663 | -169.94881 | 41162 ft | 478 kts | 106° |
| 2026-04-25 15:44 | 24.96796 | -169.87840 | 41161 ft | 478 kts | 105° |
| 2026-04-25 15:45 | 24.94979 | -169.80788 | 41160 ft | 479 kts | 104° |
| 2026-04-25 15:45 | 24.93448 | -169.74874 | 41161 ft | 478 kts | 105° |
| 2026-04-25 15:46 | 24.91306 | -169.66668 | 41167 ft | 479 kts | 105° |
| 2026-04-25 15:46 | 24.89456 | -169.59616 | 41165 ft | 479 kts | 105° |
| 2026-04-25 15:47 | 24.87601 | -169.52568 | 41165 ft | 479 kts | 105° |
| 2026-04-25 15:47 | 24.85743 | -169.45518 | 41163 ft | 480 kts | 105° |
| 2026-04-25 15:48 | 24.83881 | -169.38465 | 41164 ft | 479 kts | 105° |
| 2026-04-25 15:48 | 24.82020 | -169.31433 | 41165 ft | 479 kts | 105° |
| 2026-04-25 15:49 | 24.80191 | -169.24530 | 41109 ft | 480 kts | 105° |
| 2026-04-25 15:49 | 24.78315 | -169.17467 | 41164 ft | 480 kts | 105° |
| 2026-04-25 15:50 | 24.76442 | -169.10435 | 41163 ft | 479 kts | 105° |
| 2026-04-25 15:50 | 24.74568 | -169.03412 | 41163 ft | 478 kts | 105° |
| 2026-04-25 15:51 | 24.73009 | -168.97580 | 41162 ft | 478 kts | 105° |
| 2026-04-25 15:51 | 24.70811 | -168.89371 | 41163 ft | 478 kts | 105° |
| 2026-04-25 15:52 | 24.68931 | -168.82368 | 41163 ft | 478 kts | 105° |
| 2026-04-25 15:52 | 24.67043 | -168.75348 | 41163 ft | 479 kts | 105° |
| 2026-04-25 15:53 | 24.65152 | -168.68331 | 41168 ft | 478 kts | 105° |
| 2026-04-25 15:53 | 24.63262 | -168.61326 | 41160 ft | 478 kts | 105° |
| 2026-04-25 15:54 | 24.61377 | -168.54364 | 41159 ft | 478 kts | 105° |
| 2026-04-25 15:54 | 24.59478 | -168.47363 | 41159 ft | 478 kts | 105° |
| 2026-04-25 15:55 | 24.57627 | -168.40550 | 42139 ft | 478 kts | 105° |
| 2026-04-25 15:55 | 24.56671 | -168.37032 | 41072 ft | 481 kts | 105° |
| 2026-04-25 15:55 | 24.55715 | -168.33519 | 41145 ft | 481 kts | 105° |
| 2026-04-25 15:56 | 24.53796 | -168.26488 | 41160 ft | 479 kts | 105° |
| 2026-04-25 15:56 | 24.51880 | -168.19478 | 41156 ft | 480 kts | 105° |
| 2026-04-25 15:57 | 24.49957 | -168.12457 | 41156 ft | 479 kts | 106° |
| 2026-04-25 15:57 | 24.48035 | -168.05454 | 41158 ft | 479 kts | 105° |
| 2026-04-25 15:58 | 24.46108 | -167.98445 | 41157 ft | 480 kts | 105° |
| 2026-04-25 15:58 | 24.44179 | -167.91444 | 41158 ft | 479 kts | 105° |
| 2026-04-25 15:59 | 24.42246 | -167.84441 | 41157 ft | 480 kts | 105° |
| 2026-04-25 15:59 | 24.40310 | -167.77441 | 41157 ft | 480 kts | 106° |
| 2026-04-25 16:00 | 24.39013 | -167.72758 | 41160 ft | 479 kts | 105° |
| 2026-04-25 16:00 | 24.36428 | -167.63443 | 41158 ft | 480 kts | 105° |
| 2026-04-25 16:01 | 24.34480 | -167.56442 | 41158 ft | 479 kts | 105° |
| 2026-04-25 16:01 | 24.32531 | -167.49454 | 41157 ft | 480 kts | 105° |
| 2026-04-25 16:02 | 24.30576 | -167.42451 | 41157 ft | 480 kts | 106° |
| 2026-04-25 16:02 | 24.28622 | -167.35469 | 41157 ft | 479 kts | 105° |
| 2026-04-25 16:03 | 24.26661 | -167.28474 | 41157 ft | 480 kts | 106° |
| 2026-04-25 16:03 | 24.24697 | -167.21485 | 41160 ft | 480 kts | 106° |
| 2026-04-25 16:04 | 24.22733 | -167.14508 | 41157 ft | 480 kts | 105° |
| 2026-04-25 16:04 | 24.20776 | -167.07566 | 41155 ft | 480 kts | 106° |
| 2026-04-25 16:05 | 24.18802 | -167.00581 | 41156 ft | 479 kts | 105° |
| 2026-04-25 16:06 | 24.15837 | -166.90113 | 41156 ft | 480 kts | 106° |
| 2026-04-25 16:06 | 24.13855 | -166.83133 | 41159 ft | 480 kts | 106° |
| 2026-04-25 16:07 | 24.11875 | -166.76173 | 41150 ft | 479 kts | 106° |
| 2026-04-25 16:07 | 24.09892 | -166.69212 | 41157 ft | 480 kts | 106° |
| 2026-04-25 16:08 | 24.07899 | -166.62234 | 41155 ft | 479 kts | 106° |
| 2026-04-25 16:08 | 24.05906 | -166.55269 | 41158 ft | 480 kts | 106° |
| 2026-04-25 16:09 | 24.03910 | -166.48303 | 41158 ft | 480 kts | 106° |
| 2026-04-25 16:09 | 24.01910 | -166.41341 | 41155 ft | 480 kts | 106° |
| 2026-04-25 16:10 | 23.99906 | -166.34375 | 41152 ft | 481 kts | 106° |
| 2026-04-25 16:10 | 23.97899 | -166.27410 | 41150 ft | 480 kts | 106° |
| 2026-04-25 16:11 | 23.95888 | -166.20448 | 41154 ft | 480 kts | 106° |
| 2026-04-25 16:11 | 23.93873 | -166.13483 | 41159 ft | 481 kts | 106° |
| 2026-04-25 16:12 | 23.91855 | -166.06521 | 41152 ft | 480 kts | 106° |
| 2026-04-25 16:12 | 23.89836 | -165.99569 | 41154 ft | 480 kts | 106° |
| 2026-04-25 16:13 | 23.87813 | -165.92616 | 41158 ft | 480 kts | 106° |
| 2026-04-25 16:13 | 23.85787 | -165.85667 | 41158 ft | 480 kts | 106° |
| 2026-04-25 16:14 | 23.83759 | -165.78723 | 41151 ft | 480 kts | 106° |
| 2026-04-25 16:14 | 23.82069 | -165.72946 | 41150 ft | 480 kts | 106° |
| 2026-04-25 16:15 | 23.80036 | -165.66005 | 41152 ft | 480 kts | 106° |
| 2026-04-25 16:15 | 23.78000 | -165.59070 | 41149 ft | 480 kts | 106° |
| 2026-04-25 16:16 | 23.75957 | -165.52124 | 41153 ft | 480 kts | 106° |
| 2026-04-25 16:16 | 23.73913 | -165.45188 | 41153 ft | 480 kts | 106° |
| 2026-04-25 16:17 | 23.71867 | -165.38254 | 41153 ft | 480 kts | 106° |
| 2026-04-25 16:17 | 23.69820 | -165.31332 | 41150 ft | 479 kts | 106° |
| 2026-04-25 16:18 | 23.67769 | -165.24410 | 41159 ft | 479 kts | 106° |
| 2026-04-25 16:18 | 23.65713 | -165.17482 | 41150 ft | 480 kts | 106° |
| 2026-04-25 16:19 | 23.63654 | -165.10559 | 41155 ft | 480 kts | 106° |
| 2026-04-25 16:19 | 23.61593 | -165.03637 | 41153 ft | 480 kts | 106° |
| 2026-04-25 16:20 | 23.58496 | -164.93264 | 41152 ft | 479 kts | 106° |
| 2026-04-25 16:21 | 23.55407 | -164.82946 | 41148 ft | 480 kts | 106° |
| 2026-04-25 16:21 | 23.53339 | -164.76053 | 41150 ft | 480 kts | 106° |
| 2026-04-25 16:22 | 23.51258 | -164.69127 | 41149 ft | 480 kts | 106° |
| 2026-04-25 16:22 | 23.49178 | -164.62220 | 41156 ft | 480 kts | 106° |
| 2026-04-25 16:23 | 23.47095 | -164.55314 | 41148 ft | 480 kts | 107° |
| 2026-04-25 16:23 | 23.45010 | -164.48411 | 41151 ft | 480 kts | 106° |
| 2026-04-25 16:24 | 23.42922 | -164.41514 | 41150 ft | 480 kts | 107° |
| 2026-04-25 16:24 | 23.40830 | -164.34615 | 41154 ft | 480 kts | 106° |
| 2026-04-25 16:25 | 23.39092 | -164.28892 | 41150 ft | 479 kts | 107° |
| 2026-04-25 16:25 | 23.36654 | -164.20881 | 41154 ft | 479 kts | 107° |
| 2026-04-25 16:26 | 23.34556 | -164.13997 | 41152 ft | 479 kts | 107° |
| 2026-04-25 16:26 | 23.32457 | -164.07123 | 41146 ft | 479 kts | 107° |
| 2026-04-25 16:27 | 23.30351 | -164.00236 | 41159 ft | 479 kts | 107° |
| 2026-04-25 16:27 | 23.28244 | -163.93360 | 41139 ft | 479 kts | 107° |
| 2026-04-25 16:28 | 23.26130 | -163.86480 | 41144 ft | 480 kts | 107° |
| 2026-04-25 16:28 | 23.23741 | -163.79694 | 41147 ft | 480 kts | 110° |
| 2026-04-25 16:29 | 23.21266 | -163.72950 | 41146 ft | 480 kts | 110° |
| 2026-04-25 16:29 | 23.18794 | -163.66198 | 41145 ft | 481 kts | 110° |
| 2026-04-25 16:30 | 23.16318 | -163.59433 | 41136 ft | 482 kts | 110° |
| 2026-04-25 16:30 | 23.13839 | -163.52666 | 41145 ft | 482 kts | 110° |
| 2026-04-25 16:31 | 23.11354 | -163.45894 | 41145 ft | 482 kts | 110° |
| 2026-04-25 16:31 | 23.08870 | -163.39133 | 41142 ft | 482 kts | 110° |